sensor_id;sensor_type;location;lat;lon;timestamp;P1;durP1;ratioP1;P2;durP2;ratioP2
37973;SDS011;23796;51.458;7.000;2022-09-11T00:00:59;20.90;;;18.80;;
37973;SDS011;23796;51.458;7.000;2022-09-11T00:03:30;20.58;;;18.48;;
37973;SDS011;23796;51.458;7.000;2022-09-11T00:05:55;15.32;;;13.82;;
37973;SDS011;23796;51.458;7.000;2022-09-11T00:08:34;16.33;;;14.65;;
37973;SDS011;23796;51.458;7.000;2022-09-11T00:11:03;17.17;;;15.48;;
37973;SDS011;23796;51.458;7.000;2022-09-11T00:13:37;17.45;;;15.68;;
37973;SDS011;23796;51.458;7.000;2022-09-11T00:16:06;19.67;;;16.70;;
37973;SDS011;23796;51.458;7.000;2022-09-11T00:18:41;22.15;;;19.27;;
37973;SDS011;23796;51.458;7.000;2022-09-11T00:21:10;21.63;;;19.42;;
37973;SDS011;23796;51.458;7.000;2022-09-11T00:23:39;19.90;;;17.80;;
37973;SDS011;23796;51.458;7.000;2022-09-11T00:26:09;18.85;;;17.05;;
37973;SDS011;23796;51.458;7.000;2022-09-11T00:28:34;18.95;;;17.02;;
37973;SDS011;23796;51.458;7.000;2022-09-11T00:31:08;18.02;;;16.33;;
37973;SDS011;23796;51.458;7.000;2022-09-11T00:33:39;17.30;;;15.48;;
37973;SDS011;23796;51.458;7.000;2022-09-11T00:36:07;15.23;;;13.63;;
37973;SDS011;23796;51.458;7.000;2022-09-11T00:38:38;15.27;;;13.70;;
37973;SDS011;23796;51.458;7.000;2022-09-11T00:41:08;17.52;;;15.32;;
37973;SDS011;23796;51.458;7.000;2022-09-11T00:46:25;14.48;;;13.20;;
37973;SDS011;23796;51.458;7.000;2022-09-11T00:49:11;15.55;;;13.95;;
37973;SDS011;23796;51.458;7.000;2022-09-11T00:51:41;15.38;;;13.88;;
37973;SDS011;23796;51.458;7.000;2022-09-11T00:54:10;15.90;;;14.20;;
37973;SDS011;23796;51.458;7.000;2022-09-11T00:56:40;16.80;;;15.10;;
37973;SDS011;23796;51.458;7.000;2022-09-11T00:59:07;16.85;;;15.15;;
37973;SDS011;23796;51.458;7.000;2022-09-11T01:01:35;18.70;;;16.48;;
37973;SDS011;23796;51.458;7.000;2022-09-11T01:04:03;19.60;;;17.63;;
37973;SDS011;23796;51.458;7.000;2022-09-11T01:06:31;21.33;;;17.58;;
37973;SDS011;23796;51.458;7.000;2022-09-11T01:08:56;17.73;;;15.80;;
37973;SDS011;23796;51.458;7.000;2022-09-11T01:30:11;16.45;;;14.75;;
37973;SDS011;23796;51.458;7.000;2022-09-11T01:37:58;20.42;;;18.33;;
37973;SDS011;23796;51.458;7.000;2022-09-11T01:40:35;20.05;;;18.05;;
37973;SDS011;23796;51.458;7.000;2022-09-11T01:43:10;19.88;;;17.77;;
37973;SDS011;23796;51.458;7.000;2022-09-11T01:45:40;22.90;;;18.20;;
37973;SDS011;23796;51.458;7.000;2022-09-11T01:48:10;19.63;;;17.55;;
37973;SDS011;23796;51.458;7.000;2022-09-11T01:50:45;18.85;;;16.85;;
37973;SDS011;23796;51.458;7.000;2022-09-11T01:53:13;19.98;;;17.77;;
37973;SDS011;23796;51.458;7.000;2022-09-11T01:55:49;18.60;;;16.55;;
37973;SDS011;23796;51.458;7.000;2022-09-11T01:58:26;23.00;;;18.52;;
37973;SDS011;23796;51.458;7.000;2022-09-11T02:00:55;19.85;;;17.75;;
37973;SDS011;23796;51.458;7.000;2022-09-11T02:03:41;21.17;;;18.83;;
37973;SDS011;23796;51.458;7.000;2022-09-11T02:06:17;20.98;;;18.75;;
37973;SDS011;23796;51.458;7.000;2022-09-11T02:11:15;19.50;;;17.38;;
37973;SDS011;23796;51.458;7.000;2022-09-11T02:19:04;20.08;;;18.08;;
37973;SDS011;23796;51.458;7.000;2022-09-11T02:21:31;18.83;;;16.85;;
37973;SDS011;23796;51.458;7.000;2022-09-11T02:24:03;22.23;;;19.17;;
37973;SDS011;23796;51.458;7.000;2022-09-11T02:26:30;20.90;;;18.70;;
37973;SDS011;23796;51.458;7.000;2022-09-11T02:28:58;21.50;;;17.40;;
37973;SDS011;23796;51.458;7.000;2022-09-11T02:31:29;20.38;;;18.13;;
37973;SDS011;23796;51.458;7.000;2022-09-11T02:33:57;18.85;;;16.95;;
37973;SDS011;23796;51.458;7.000;2022-09-11T02:36:30;20.65;;;17.55;;
37973;SDS011;23796;51.458;7.000;2022-09-11T02:39:19;22.23;;;18.80;;
37973;SDS011;23796;51.458;7.000;2022-09-11T02:58:58;20.40;;;18.27;;
37973;SDS011;23796;51.458;7.000;2022-09-11T03:01:30;20.38;;;18.27;;
37973;SDS011;23796;51.458;7.000;2022-09-11T03:04:11;21.15;;;18.90;;
37973;SDS011;23796;51.458;7.000;2022-09-11T03:06:39;22.15;;;18.23;;
37973;SDS011;23796;51.458;7.000;2022-09-11T03:09:09;21.58;;;18.48;;
37973;SDS011;23796;51.458;7.000;2022-09-11T03:11:35;20.27;;;17.60;;
37973;SDS011;23796;51.458;7.000;2022-09-11T03:14:00;21.13;;;18.67;;
37973;SDS011;23796;51.458;7.000;2022-09-11T03:16:26;24.25;;;20.50;;
37973;SDS011;23796;51.458;7.000;2022-09-11T03:18:52;39.50;;;26.83;;
37973;SDS011;23796;51.458;7.000;2022-09-11T03:21:17;43.40;;;27.70;;
37973;SDS011;23796;51.458;7.000;2022-09-11T03:23:43;53.03;;;32.50;;
37973;SDS011;23796;51.458;7.000;2022-09-11T03:26:11;79.80;;;36.67;;
37973;SDS011;23796;51.458;7.000;2022-09-11T03:28:39;75.70;;;38.33;;
37973;SDS011;23796;51.458;7.000;2022-09-11T03:31:04;71.15;;;38.92;;
37973;SDS011;23796;51.458;7.000;2022-09-11T03:33:31;59.50;;;35.70;;
37973;SDS011;23796;51.458;7.000;2022-09-11T03:35:57;79.80;;;38.55;;
37973;SDS011;23796;51.458;7.000;2022-09-11T03:38:23;65.57;;;36.00;;
37973;SDS011;23796;51.458;7.000;2022-09-11T03:40:51;112.55;;;39.47;;
37973;SDS011;23796;51.458;7.000;2022-09-11T03:43:19;85.07;;;38.35;;
37973;SDS011;23796;51.458;7.000;2022-09-11T03:45:47;77.38;;;36.38;;
37973;SDS011;23796;51.458;7.000;2022-09-11T03:48:15;90.35;;;36.10;;
37973;SDS011;23796;51.458;7.000;2022-09-11T03:50:43;121.15;;;39.75;;
37973;SDS011;23796;51.458;7.000;2022-09-11T03:53:09;114.78;;;40.00;;
37973;SDS011;23796;51.458;7.000;2022-09-11T03:55:35;136.32;;;39.92;;
37973;SDS011;23796;51.458;7.000;2022-09-11T03:58:01;88.82;;;39.15;;
37973;SDS011;23796;51.458;7.000;2022-09-11T04:00:27;106.22;;;40.63;;
37973;SDS011;23796;51.458;7.000;2022-09-11T04:02:52;111.60;;;37.03;;
37973;SDS011;23796;51.458;7.000;2022-09-11T04:05:21;90.32;;;40.33;;
37973;SDS011;23796;51.458;7.000;2022-09-11T04:07:50;100.13;;;40.58;;
37973;SDS011;23796;51.458;7.000;2022-09-11T04:10:19;104.28;;;43.15;;
37973;SDS011;23796;51.458;7.000;2022-09-11T04:12:48;94.28;;;41.60;;
37973;SDS011;23796;51.458;7.000;2022-09-11T04:15:14;117.40;;;43.10;;
37973;SDS011;23796;51.458;7.000;2022-09-11T04:17:42;107.63;;;42.08;;
37973;SDS011;23796;51.458;7.000;2022-09-11T04:20:10;92.60;;;40.60;;
37973;SDS011;23796;51.458;7.000;2022-09-11T04:22:35;133.02;;;48.10;;
37973;SDS011;23796;51.458;7.000;2022-09-11T04:25:02;119.47;;;45.60;;
37973;SDS011;23796;51.458;7.000;2022-09-11T04:27:27;103.88;;;45.38;;
37973;SDS011;23796;51.458;7.000;2022-09-11T04:29:57;106.40;;;46.42;;
37973;SDS011;23796;51.458;7.000;2022-09-11T04:32:25;96.93;;;44.63;;
37973;SDS011;23796;51.458;7.000;2022-09-11T04:34:52;114.72;;;42.90;;
37973;SDS011;23796;51.458;7.000;2022-09-11T04:37:18;113.88;;;45.17;;
37973;SDS011;23796;51.458;7.000;2022-09-11T04:39:43;164.48;;;46.92;;
37973;SDS011;23796;51.458;7.000;2022-09-11T04:42:13;133.75;;;44.72;;
37973;SDS011;23796;51.458;7.000;2022-09-11T04:44:41;111.90;;;41.65;;
37973;SDS011;23796;51.458;7.000;2022-09-11T04:47:07;116.65;;;38.88;;
37973;SDS011;23796;51.458;7.000;2022-09-11T04:49:33;186.77;;;45.28;;
37973;SDS011;23796;51.458;7.000;2022-09-11T04:52:01;114.63;;;39.65;;
37973;SDS011;23796;51.458;7.000;2022-09-11T04:54:31;96.85;;;38.30;;
37973;SDS011;23796;51.458;7.000;2022-09-11T04:57:00;99.30;;;40.33;;
37973;SDS011;23796;51.458;7.000;2022-09-11T04:59:27;90.80;;;40.45;;
37973;SDS011;23796;51.458;7.000;2022-09-11T05:01:55;116.40;;;40.80;;
37973;SDS011;23796;51.458;7.000;2022-09-11T05:04:23;80.32;;;37.33;;
37973;SDS011;23796;51.458;7.000;2022-09-11T05:06:53;126.63;;;43.53;;
37973;SDS011;23796;51.458;7.000;2022-09-11T05:09:21;104.75;;;38.95;;
37973;SDS011;23796;51.458;7.000;2022-09-11T05:11:47;110.63;;;39.63;;
37973;SDS011;23796;51.458;7.000;2022-09-11T05:14:12;118.35;;;41.72;;
37973;SDS011;23796;51.458;7.000;2022-09-11T05:16:39;125.93;;;43.63;;
37973;SDS011;23796;51.458;7.000;2022-09-11T05:19:08;99.93;;;42.83;;
37973;SDS011;23796;51.458;7.000;2022-09-11T05:21:36;98.40;;;43.65;;
37973;SDS011;23796;51.458;7.000;2022-09-11T05:24:03;81.95;;;39.55;;
37973;SDS011;23796;51.458;7.000;2022-09-11T05:26:33;83.13;;;38.38;;
37973;SDS011;23796;51.458;7.000;2022-09-11T05:29:01;91.50;;;39.78;;
37973;SDS011;23796;51.458;7.000;2022-09-11T05:31:29;65.38;;;37.65;;
37973;SDS011;23796;51.458;7.000;2022-09-11T05:33:56;66.40;;;38.55;;
37973;SDS011;23796;51.458;7.000;2022-09-11T05:36:23;59.42;;;36.33;;
37973;SDS011;23796;51.458;7.000;2022-09-11T05:38:50;58.30;;;35.65;;
37973;SDS011;23796;51.458;7.000;2022-09-11T05:41:17;51.05;;;34.65;;
37973;SDS011;23796;51.458;7.000;2022-09-11T05:43:43;64.78;;;36.00;;
37973;SDS011;23796;51.458;7.000;2022-09-11T05:46:13;64.95;;;36.13;;
37973;SDS011;23796;51.458;7.000;2022-09-11T05:48:40;104.05;;;39.08;;
37973;SDS011;23796;51.458;7.000;2022-09-11T05:51:10;59.97;;;35.63;;
37973;SDS011;23796;51.458;7.000;2022-09-11T05:53:37;51.67;;;33.03;;
37973;SDS011;23796;51.458;7.000;2022-09-11T05:56:14;50.53;;;34.20;;
37973;SDS011;23796;51.458;7.000;2022-09-11T05:58:41;51.67;;;34.85;;
37973;SDS011;23796;51.458;7.000;2022-09-11T06:01:12;76.75;;;37.50;;
37973;SDS011;23796;51.458;7.000;2022-09-11T06:03:39;77.00;;;38.72;;
37973;SDS011;23796;51.458;7.000;2022-09-11T06:06:06;55.85;;;35.47;;
37973;SDS011;23796;51.458;7.000;2022-09-11T06:08:36;83.40;;;38.13;;
37973;SDS011;23796;51.458;7.000;2022-09-11T06:11:03;68.53;;;38.35;;
37973;SDS011;23796;51.458;7.000;2022-09-11T06:13:32;72.32;;;39.63;;
37973;SDS011;23796;51.458;7.000;2022-09-11T06:15:59;68.22;;;38.95;;
37973;SDS011;23796;51.458;7.000;2022-09-11T06:18:27;69.18;;;38.05;;
37973;SDS011;23796;51.458;7.000;2022-09-11T06:21:03;61.30;;;36.05;;
37973;SDS011;23796;51.458;7.000;2022-09-11T06:23:31;70.00;;;37.40;;
37973;SDS011;23796;51.458;7.000;2022-09-11T06:26:02;58.85;;;35.58;;
37973;SDS011;23796;51.458;7.000;2022-09-11T06:28:28;69.07;;;37.42;;
37973;SDS011;23796;51.458;7.000;2022-09-11T06:30:56;61.67;;;37.47;;
37973;SDS011;23796;51.458;7.000;2022-09-11T06:33:22;64.22;;;35.97;;
37973;SDS011;23796;51.458;7.000;2022-09-11T06:35:54;58.20;;;35.85;;
37973;SDS011;23796;51.458;7.000;2022-09-11T06:38:24;62.97;;;36.78;;
37973;SDS011;23796;51.458;7.000;2022-09-11T06:40:51;63.25;;;35.70;;
37973;SDS011;23796;51.458;7.000;2022-09-11T06:43:19;58.95;;;34.70;;
37973;SDS011;23796;51.458;7.000;2022-09-11T06:45:45;48.13;;;31.42;;
37973;SDS011;23796;51.458;7.000;2022-09-11T06:48:14;43.72;;;31.00;;
37973;SDS011;23796;51.458;7.000;2022-09-11T06:50:40;45.95;;;31.90;;
37973;SDS011;23796;51.458;7.000;2022-09-11T06:53:06;45.08;;;30.02;;
37973;SDS011;23796;51.458;7.000;2022-09-11T06:55:33;43.17;;;30.05;;
37973;SDS011;23796;51.458;7.000;2022-09-11T06:57:59;49.22;;;31.92;;
37973;SDS011;23796;51.458;7.000;2022-09-11T07:00:26;49.63;;;31.17;;
37973;SDS011;23796;51.458;7.000;2022-09-11T07:02:52;45.17;;;31.60;;
37973;SDS011;23796;51.458;7.000;2022-09-11T07:05:25;46.55;;;33.45;;
37973;SDS011;23796;51.458;7.000;2022-09-11T07:07:51;46.28;;;34.40;;
37973;SDS011;23796;51.458;7.000;2022-09-11T07:10:19;42.35;;;31.83;;
37973;SDS011;23796;51.458;7.000;2022-09-11T07:12:50;37.95;;;30.02;;
37973;SDS011;23796;51.458;7.000;2022-09-11T07:15:19;40.70;;;31.48;;
37973;SDS011;23796;51.458;7.000;2022-09-11T07:17:48;52.15;;;35.45;;
37973;SDS011;23796;51.458;7.000;2022-09-11T07:20:13;49.92;;;34.63;;
37973;SDS011;23796;51.458;7.000;2022-09-11T07:22:41;47.38;;;34.90;;
37973;SDS011;23796;51.458;7.000;2022-09-11T07:25:09;47.65;;;35.33;;
37973;SDS011;23796;51.458;7.000;2022-09-11T07:27:35;44.95;;;34.30;;
37973;SDS011;23796;51.458;7.000;2022-09-11T07:30:01;48.25;;;34.33;;
37973;SDS011;23796;51.458;7.000;2022-09-11T07:32:29;44.97;;;33.53;;
37973;SDS011;23796;51.458;7.000;2022-09-11T07:34:55;49.22;;;36.97;;
37973;SDS011;23796;51.458;7.000;2022-09-11T07:37:23;47.80;;;35.03;;
37973;SDS011;23796;51.458;7.000;2022-09-11T07:39:49;46.75;;;34.90;;
37973;SDS011;23796;51.458;7.000;2022-09-11T07:42:14;46.25;;;35.22;;
37973;SDS011;23796;51.458;7.000;2022-09-11T07:44:40;47.25;;;36.17;;
37973;SDS011;23796;51.458;7.000;2022-09-11T07:47:07;50.90;;;37.72;;
37973;SDS011;23796;51.458;7.000;2022-09-11T07:49:36;53.72;;;38.97;;
37973;SDS011;23796;51.458;7.000;2022-09-11T07:52:01;53.13;;;40.95;;
37973;SDS011;23796;51.458;7.000;2022-09-11T07:54:30;53.70;;;39.85;;
37973;SDS011;23796;51.458;7.000;2022-09-11T07:56:55;50.42;;;39.70;;
37973;SDS011;23796;51.458;7.000;2022-09-11T07:59:23;52.50;;;39.25;;
37973;SDS011;23796;51.458;7.000;2022-09-11T08:01:49;57.80;;;37.85;;
37973;SDS011;23796;51.458;7.000;2022-09-11T08:04:19;44.90;;;36.00;;
37973;SDS011;23796;51.458;7.000;2022-09-11T08:06:47;47.97;;;38.30;;
37973;SDS011;23796;51.458;7.000;2022-09-11T08:09:13;43.40;;;34.78;;
37973;SDS011;23796;51.458;7.000;2022-09-11T08:11:42;41.80;;;34.80;;
37973;SDS011;23796;51.458;7.000;2022-09-11T08:14:11;50.13;;;38.30;;
37973;SDS011;23796;51.458;7.000;2022-09-11T08:16:41;48.58;;;38.20;;
37973;SDS011;23796;51.458;7.000;2022-09-11T08:19:13;55.60;;;43.00;;
37973;SDS011;23796;51.458;7.000;2022-09-11T08:21:44;55.22;;;40.47;;
37973;SDS011;23796;51.458;7.000;2022-09-11T08:24:12;53.35;;;40.35;;
37973;SDS011;23796;51.458;7.000;2022-09-11T08:26:38;49.60;;;40.08;;
37973;SDS011;23796;51.458;7.000;2022-09-11T08:29:03;52.42;;;39.05;;
37973;SDS011;23796;51.458;7.000;2022-09-11T08:31:30;53.88;;;39.63;;
37973;SDS011;23796;51.458;7.000;2022-09-11T08:33:59;55.47;;;42.38;;
37973;SDS011;23796;51.458;7.000;2022-09-11T08:36:28;55.88;;;39.88;;
37973;SDS011;23796;51.458;7.000;2022-09-11T08:38:53;53.80;;;41.33;;
37973;SDS011;23796;51.458;7.000;2022-09-11T08:46:34;54.78;;;42.08;;
37973;SDS011;23796;51.458;7.000;2022-09-11T08:51:55;59.92;;;43.00;;
37973;SDS011;23796;51.458;7.000;2022-09-11T08:54:33;61.75;;;43.83;;
37973;SDS011;23796;51.458;7.000;2022-09-11T08:57:16;60.08;;;42.42;;
37973;SDS011;23796;51.458;7.000;2022-09-11T08:59:46;61.38;;;43.00;;
37973;SDS011;23796;51.458;7.000;2022-09-11T09:08:04;53.42;;;40.20;;
37973;SDS011;23796;51.458;7.000;2022-09-11T09:11:03;47.25;;;36.83;;
37973;SDS011;23796;51.458;7.000;2022-09-11T09:19:25;38.30;;;31.30;;
37973;SDS011;23796;51.458;7.000;2022-09-11T09:22:17;35.35;;;31.38;;
37973;SDS011;23796;51.458;7.000;2022-09-11T09:24:47;52.30;;;45.17;;
37973;SDS011;23796;51.458;7.000;2022-09-11T09:27:17;37.80;;;33.65;;
37973;SDS011;23796;51.458;7.000;2022-09-11T09:29:53;34.45;;;29.05;;
37973;SDS011;23796;51.458;7.000;2022-09-11T09:32:27;32.05;;;28.45;;
37973;SDS011;23796;51.458;7.000;2022-09-11T09:34:57;31.80;;;28.17;;
37973;SDS011;23796;51.458;7.000;2022-09-11T09:37:32;34.28;;;28.48;;
37973;SDS011;23796;51.458;7.000;2022-09-11T09:39:58;35.40;;;30.50;;
37973;SDS011;23796;51.458;7.000;2022-09-11T09:47:57;38.67;;;33.03;;
37973;SDS011;23796;51.458;7.000;2022-09-11T09:50:30;39.55;;;31.48;;
37973;SDS011;23796;51.458;7.000;2022-09-11T09:53:10;38.33;;;32.97;;
37973;SDS011;23796;51.458;7.000;2022-09-11T09:55:45;38.85;;;31.17;;
37973;SDS011;23796;51.458;7.000;2022-09-11T09:58:15;39.25;;;32.88;;
37973;SDS011;23796;51.458;7.000;2022-09-11T10:00:41;36.80;;;32.13;;
37973;SDS011;23796;51.458;7.000;2022-09-11T10:03:17;35.70;;;30.25;;
37973;SDS011;23796;51.458;7.000;2022-09-11T10:05:45;33.35;;;29.67;;
37973;SDS011;23796;51.458;7.000;2022-09-11T10:11:09;34.30;;;27.98;;
37973;SDS011;23796;51.458;7.000;2022-09-11T10:13:41;32.22;;;26.67;;
37973;SDS011;23796;51.458;7.000;2022-09-11T10:16:18;32.65;;;25.45;;
37973;SDS011;23796;51.458;7.000;2022-09-11T10:18:47;30.52;;;26.42;;
37973;SDS011;23796;51.458;7.000;2022-09-11T10:23:57;28.77;;;24.73;;
37973;SDS011;23796;51.458;7.000;2022-09-11T10:26:43;31.70;;;25.55;;
37973;SDS011;23796;51.458;7.000;2022-09-11T10:29:21;27.45;;;23.98;;
37973;SDS011;23796;51.458;7.000;2022-09-11T10:32:03;27.83;;;24.08;;
37973;SDS011;23796;51.458;7.000;2022-09-11T10:34:34;28.42;;;25.30;;
37973;SDS011;23796;51.458;7.000;2022-09-11T10:37:15;27.98;;;23.85;;
37973;SDS011;23796;51.458;7.000;2022-09-11T10:39:55;24.63;;;21.98;;
37973;SDS011;23796;51.458;7.000;2022-09-11T10:42:33;26.60;;;23.27;;
37973;SDS011;23796;51.458;7.000;2022-09-11T10:45:11;29.40;;;24.10;;
37973;SDS011;23796;51.458;7.000;2022-09-11T10:47:43;31.95;;;26.75;;
37973;SDS011;23796;51.458;7.000;2022-09-11T10:55:29;30.25;;;26.15;;
37973;SDS011;23796;51.458;7.000;2022-09-11T10:58:08;28.98;;;24.67;;
37973;SDS011;23796;51.458;7.000;2022-09-11T11:00:40;30.33;;;24.88;;
37973;SDS011;23796;51.458;7.000;2022-09-11T11:03:09;30.63;;;25.90;;
37973;SDS011;23796;51.458;7.000;2022-09-11T11:11:33;33.58;;;27.73;;
37973;SDS011;23796;51.458;7.000;2022-09-11T11:25:58;31.15;;;27.83;;
37973;SDS011;23796;51.458;7.000;2022-09-11T11:31:26;33.38;;;27.38;;
37973;SDS011;23796;51.458;7.000;2022-09-11T11:34:19;29.92;;;26.42;;
37973;SDS011;23796;51.458;7.000;2022-09-11T11:39:49;28.02;;;25.05;;
37973;SDS011;23796;51.458;7.000;2022-09-11T11:45:26;26.58;;;23.08;;
37973;SDS011;23796;51.458;7.000;2022-09-11T11:47:58;25.92;;;21.90;;
37973;SDS011;23796;51.458;7.000;2022-09-11T11:50:33;27.60;;;24.60;;
37973;SDS011;23796;51.458;7.000;2022-09-11T11:58:55;25.95;;;22.98;;
37973;SDS011;23796;51.458;7.000;2022-09-11T12:02:12;28.67;;;24.65;;
37973;SDS011;23796;51.458;7.000;2022-09-11T12:07:20;28.23;;;25.13;;
37973;SDS011;23796;51.458;7.000;2022-09-11T12:09:49;27.08;;;23.70;;
37973;SDS011;23796;51.458;7.000;2022-09-11T12:12:18;28.05;;;24.95;;
37973;SDS011;23796;51.458;7.000;2022-09-11T12:17:27;29.30;;;25.38;;
37973;SDS011;23796;51.458;7.000;2022-09-11T12:22:41;29.33;;;26.15;;
37973;SDS011;23796;51.458;7.000;2022-09-11T12:36:12;28.20;;;24.58;;
37973;SDS011;23796;51.458;7.000;2022-09-11T12:38:46;28.05;;;25.05;;
37973;SDS011;23796;51.458;7.000;2022-09-11T12:41:29;28.00;;;25.08;;
37973;SDS011;23796;51.458;7.000;2022-09-11T12:44:02;27.70;;;24.73;;
37973;SDS011;23796;51.458;7.000;2022-09-11T12:51:41;27.75;;;24.80;;
37973;SDS011;23796;51.458;7.000;2022-09-11T12:54:17;29.98;;;24.35;;
37973;SDS011;23796;51.458;7.000;2022-09-11T12:57:05;26.38;;;23.58;;
37973;SDS011;23796;51.458;7.000;2022-09-11T12:59:38;27.25;;;24.35;;
37973;SDS011;23796;51.458;7.000;2022-09-11T13:02:22;25.27;;;22.58;;
37973;SDS011;23796;51.458;7.000;2022-09-11T13:05:01;25.83;;;22.75;;
37973;SDS011;23796;51.458;7.000;2022-09-11T13:10:06;24.50;;;22.00;;
37973;SDS011;23796;51.458;7.000;2022-09-11T13:12:49;25.60;;;22.83;;
37973;SDS011;23796;51.458;7.000;2022-09-11T13:18:23;25.70;;;23.13;;
37973;SDS011;23796;51.458;7.000;2022-09-11T13:20:58;23.90;;;21.48;;
37973;SDS011;23796;51.458;7.000;2022-09-11T13:23:45;22.45;;;20.25;;
37973;SDS011;23796;51.458;7.000;2022-09-11T13:26:18;21.23;;;19.23;;
37973;SDS011;23796;51.458;7.000;2022-09-11T13:28:56;20.52;;;18.42;;
37973;SDS011;23796;51.458;7.000;2022-09-11T13:31:27;20.88;;;18.88;;
37973;SDS011;23796;51.458;7.000;2022-09-11T13:33:57;19.42;;;17.63;;
37973;SDS011;23796;51.458;7.000;2022-09-11T13:36:28;20.85;;;18.80;;
37973;SDS011;23796;51.458;7.000;2022-09-11T13:38:58;20.17;;;18.05;;
37973;SDS011;23796;51.458;7.000;2022-09-11T13:41:35;21.20;;;19.05;;
37973;SDS011;23796;51.458;7.000;2022-09-11T13:44:08;21.58;;;19.50;;
37973;SDS011;23796;51.458;7.000;2022-09-11T13:46:47;20.95;;;19.13;;
37973;SDS011;23796;51.458;7.000;2022-09-11T13:51:42;20.73;;;18.80;;
37973;SDS011;23796;51.458;7.000;2022-09-11T13:54:28;19.77;;;17.98;;
37973;SDS011;23796;51.458;7.000;2022-09-11T14:02:00;18.85;;;17.15;;
37973;SDS011;23796;51.458;7.000;2022-09-11T14:04:27;18.17;;;16.52;;
37973;SDS011;23796;51.458;7.000;2022-09-11T14:06:54;18.25;;;16.45;;
37973;SDS011;23796;51.458;7.000;2022-09-11T14:09:20;18.42;;;16.50;;
37973;SDS011;23796;51.458;7.000;2022-09-11T14:11:46;18.25;;;16.45;;
37973;SDS011;23796;51.458;7.000;2022-09-11T14:14:21;17.40;;;15.70;;
37973;SDS011;23796;51.458;7.000;2022-09-11T14:16:53;17.83;;;16.13;;
37973;SDS011;23796;51.458;7.000;2022-09-11T14:19:26;16.60;;;14.90;;
37973;SDS011;23796;51.458;7.000;2022-09-11T14:21:56;16.27;;;14.88;;
37973;SDS011;23796;51.458;7.000;2022-09-11T14:24:33;15.25;;;13.85;;
37973;SDS011;23796;51.458;7.000;2022-09-11T14:27:32;17.25;;;15.50;;
37973;SDS011;23796;51.458;7.000;2022-09-11T14:29:56;15.10;;;13.57;;
37973;SDS011;23796;51.458;7.000;2022-09-11T14:35:00;16.35;;;14.75;;
37973;SDS011;23796;51.458;7.000;2022-09-11T14:37:30;15.40;;;13.80;;
37973;SDS011;23796;51.458;7.000;2022-09-11T14:40:02;14.02;;;12.73;;
37973;SDS011;23796;51.458;7.000;2022-09-11T14:42:35;13.40;;;12.10;;
37973;SDS011;23796;51.458;7.000;2022-09-11T14:45:07;13.95;;;12.68;;
37973;SDS011;23796;51.458;7.000;2022-09-11T14:47:50;14.90;;;13.38;;
37973;SDS011;23796;51.458;7.000;2022-09-11T14:50:16;13.05;;;11.90;;
37973;SDS011;23796;51.458;7.000;2022-09-11T14:52:42;13.40;;;12.20;;
37973;SDS011;23796;51.458;7.000;2022-09-11T14:55:13;13.68;;;12.38;;
37973;SDS011;23796;51.458;7.000;2022-09-11T14:57:42;12.77;;;11.48;;
37973;SDS011;23796;51.458;7.000;2022-09-11T15:00:17;12.77;;;11.48;;
37973;SDS011;23796;51.458;7.000;2022-09-11T15:02:46;11.93;;;10.45;;
37973;SDS011;23796;51.458;7.000;2022-09-11T15:05:16;10.85;;;9.85;;
37973;SDS011;23796;51.458;7.000;2022-09-11T15:07:43;11.13;;;10.02;;
37973;SDS011;23796;51.458;7.000;2022-09-11T15:10:10;11.75;;;10.65;;
37973;SDS011;23796;51.458;7.000;2022-09-11T15:12:38;13.02;;;11.82;;
37973;SDS011;23796;51.458;7.000;2022-09-11T15:15:06;13.77;;;12.48;;
37973;SDS011;23796;51.458;7.000;2022-09-11T15:17:32;13.00;;;11.60;;
37973;SDS011;23796;51.458;7.000;2022-09-11T15:20:00;12.02;;;10.93;;
37973;SDS011;23796;51.458;7.000;2022-09-11T15:22:28;12.13;;;10.93;;
37973;SDS011;23796;51.458;7.000;2022-09-11T15:24:57;13.02;;;11.85;;
37973;SDS011;23796;51.458;7.000;2022-09-11T15:27:25;12.35;;;11.23;;
37973;SDS011;23796;51.458;7.000;2022-09-11T15:29:52;12.30;;;10.75;;
37973;SDS011;23796;51.458;7.000;2022-09-11T15:32:20;11.48;;;10.38;;
37973;SDS011;23796;51.458;7.000;2022-09-11T15:34:46;12.40;;;11.10;;
37973;SDS011;23796;51.458;7.000;2022-09-11T15:37:12;11.60;;;10.50;;
37973;SDS011;23796;51.458;7.000;2022-09-11T15:39:40;11.75;;;10.63;;
37973;SDS011;23796;51.458;7.000;2022-09-11T15:42:06;11.05;;;9.95;;
37973;SDS011;23796;51.458;7.000;2022-09-11T15:44:32;10.43;;;9.30;;
37973;SDS011;23796;51.458;7.000;2022-09-11T15:47:00;10.13;;;9.13;;
37973;SDS011;23796;51.458;7.000;2022-09-11T15:49:28;11.38;;;9.60;;
37973;SDS011;23796;51.458;7.000;2022-09-11T15:51:55;9.63;;;8.73;;
37973;SDS011;23796;51.458;7.000;2022-09-11T15:54:24;8.95;;;8.00;;
37973;SDS011;23796;51.458;7.000;2022-09-11T15:56:51;8.38;;;7.43;;
37973;SDS011;23796;51.458;7.000;2022-09-11T15:59:17;9.25;;;8.35;;
37973;SDS011;23796;51.458;7.000;2022-09-11T16:01:43;8.23;;;7.10;;
37973;SDS011;23796;51.458;7.000;2022-09-11T16:04:12;6.93;;;6.07;;
37973;SDS011;23796;51.458;7.000;2022-09-11T16:06:43;9.20;;;7.65;;
37973;SDS011;23796;51.458;7.000;2022-09-11T16:09:11;7.32;;;6.60;;
37973;SDS011;23796;51.458;7.000;2022-09-11T16:11:38;7.63;;;6.82;;
37973;SDS011;23796;51.458;7.000;2022-09-11T16:14:05;10.60;;;7.47;;
37973;SDS011;23796;51.458;7.000;2022-09-11T16:16:33;8.23;;;7.43;;
37973;SDS011;23796;51.458;7.000;2022-09-11T16:18:59;8.73;;;7.80;;
37973;SDS011;23796;51.458;7.000;2022-09-11T16:21:26;8.02;;;7.22;;
37973;SDS011;23796;51.458;7.000;2022-09-11T16:23:52;7.75;;;6.13;;
37973;SDS011;23796;51.458;7.000;2022-09-11T16:26:19;7.88;;;5.93;;
37973;SDS011;23796;51.458;7.000;2022-09-11T16:28:45;7.45;;;6.57;;
37973;SDS011;23796;51.458;7.000;2022-09-11T16:31:12;10.02;;;6.93;;
37973;SDS011;23796;51.458;7.000;2022-09-11T16:33:42;9.65;;;6.88;;
37973;SDS011;23796;51.458;7.000;2022-09-11T16:36:18;8.73;;;6.63;;
37973;SDS011;23796;51.458;7.000;2022-09-11T16:38:47;9.10;;;6.85;;
37973;SDS011;23796;51.458;7.000;2022-09-11T16:41:17;7.40;;;6.70;;
37973;SDS011;23796;51.458;7.000;2022-09-11T16:43:45;8.63;;;7.07;;
37973;SDS011;23796;51.458;7.000;2022-09-11T16:46:13;7.30;;;6.60;;
37973;SDS011;23796;51.458;7.000;2022-09-11T16:48:46;8.10;;;6.75;;
37973;SDS011;23796;51.458;7.000;2022-09-11T16:51:15;7.68;;;6.78;;
37973;SDS011;23796;51.458;7.000;2022-09-11T16:53:43;7.50;;;6.75;;
37973;SDS011;23796;51.458;7.000;2022-09-11T16:56:13;7.78;;;6.90;;
37973;SDS011;23796;51.458;7.000;2022-09-11T16:58:40;8.07;;;6.57;;
37973;SDS011;23796;51.458;7.000;2022-09-11T17:01:09;8.40;;;7.60;;
37973;SDS011;23796;51.458;7.000;2022-09-11T17:03:42;7.20;;;6.50;;
37973;SDS011;23796;51.458;7.000;2022-09-11T17:06:09;6.10;;;5.50;;
37973;SDS011;23796;51.458;7.000;2022-09-11T17:08:38;7.55;;;6.75;;
37973;SDS011;23796;51.458;7.000;2022-09-11T17:11:07;7.28;;;6.47;;
37973;SDS011;23796;51.458;7.000;2022-09-11T17:13:38;7.68;;;6.70;;
37973;SDS011;23796;51.458;7.000;2022-09-11T17:16:11;8.32;;;6.93;;
37973;SDS011;23796;51.458;7.000;2022-09-11T17:18:43;6.93;;;6.03;;
37973;SDS011;23796;51.458;7.000;2022-09-11T17:21:11;7.93;;;6.80;;